sensor_id;sensor_type;location;lat;lon;timestamp;P1;durP1;ratioP1;P2;durP2;ratioP2
70416;SDS011;57839;51.332;12.410;2022-08-18T00:01:23;8.25;;;6.30;;
70416;SDS011;57839;51.332;12.410;2022-08-18T00:03:49;10.45;;;6.47;;
70416;SDS011;57839;51.332;12.410;2022-08-18T00:06:18;8.32;;;6.35;;
70416;SDS011;57839;51.332;12.410;2022-08-18T00:08:44;6.72;;;5.93;;
70416;SDS011;57839;51.332;12.410;2022-08-18T00:11:09;7.45;;;6.47;;
70416;SDS011;57839;51.332;12.410;2022-08-18T00:13:35;10.55;;;7.07;;
70416;SDS011;57839;51.332;12.410;2022-08-18T00:16:00;7.93;;;6.50;;
70416;SDS011;57839;51.332;12.410;2022-08-18T00:18:26;7.70;;;6.32;;
70416;SDS011;57839;51.332;12.410;2022-08-18T00:20:52;7.38;;;6.60;;
70416;SDS011;57839;51.332;12.410;2022-08-18T00:23:17;8.48;;;6.57;;
70416;SDS011;57839;51.332;12.410;2022-08-18T00:25:43;8.07;;;7.25;;
70416;SDS011;57839;51.332;12.410;2022-08-18T00:28:09;8.90;;;6.78;;
70416;SDS011;57839;51.332;12.410;2022-08-18T00:30:36;9.32;;;6.65;;
70416;SDS011;57839;51.332;12.410;2022-08-18T00:33:02;8.50;;;7.28;;
70416;SDS011;57839;51.332;12.410;2022-08-18T00:35:29;10.82;;;7.07;;
70416;SDS011;57839;51.332;12.410;2022-08-18T00:38:00;10.35;;;7.13;;
70416;SDS011;57839;51.332;12.410;2022-08-18T00:40:30;10.48;;;6.72;;
70416;SDS011;57839;51.332;12.410;2022-08-18T00:43:07;9.05;;;7.05;;
70416;SDS011;57839;51.332;12.410;2022-08-18T00:45:38;11.55;;;6.90;;
70416;SDS011;57839;51.332;12.410;2022-08-18T00:48:06;8.20;;;7.38;;
70416;SDS011;57839;51.332;12.410;2022-08-18T00:50:36;7.25;;;6.55;;
70416;SDS011;57839;51.332;12.410;2022-08-18T00:53:10;9.40;;;6.78;;
70416;SDS011;57839;51.332;12.410;2022-08-18T00:55:38;9.63;;;6.00;;
70416;SDS011;57839;51.332;12.410;2022-08-18T00:58:06;8.13;;;7.25;;
70416;SDS011;57839;51.332;12.410;2022-08-18T01:00:35;7.05;;;6.10;;
70416;SDS011;57839;51.332;12.410;2022-08-18T01:03:03;8.70;;;6.50;;
70416;SDS011;57839;51.332;12.410;2022-08-18T01:05:32;8.93;;;6.72;;
70416;SDS011;57839;51.332;12.410;2022-08-18T01:08:05;9.68;;;6.53;;
70416;SDS011;57839;51.332;12.410;2022-08-18T01:10:34;8.15;;;6.25;;
70416;SDS011;57839;51.332;12.410;2022-08-18T01:13:00;7.57;;;6.38;;
70416;SDS011;57839;51.332;12.410;2022-08-18T01:15:26;7.57;;;6.55;;
70416;SDS011;57839;51.332;12.410;2022-08-18T01:17:53;9.77;;;6.32;;
70416;SDS011;57839;51.332;12.410;2022-08-18T01:20:38;8.82;;;6.72;;
70416;SDS011;57839;51.332;12.410;2022-08-18T01:23:44;9.88;;;6.47;;
70416;SDS011;57839;51.332;12.410;2022-08-18T01:26:12;9.02;;;6.75;;
70416;SDS011;57839;51.332;12.410;2022-08-18T01:28:40;8.43;;;6.80;;
70416;SDS011;57839;51.332;12.410;2022-08-18T01:31:08;7.60;;;6.53;;
70416;SDS011;57839;51.332;12.410;2022-08-18T01:33:36;9.73;;;6.03;;
70416;SDS011;57839;51.332;12.410;2022-08-18T01:36:24;9.55;;;6.22;;
70416;SDS011;57839;51.332;12.410;2022-08-18T01:38:50;7.45;;;6.60;;
70416;SDS011;57839;51.332;12.410;2022-08-18T01:41:17;8.60;;;7.10;;
70416;SDS011;57839;51.332;12.410;2022-08-18T01:43:45;8.18;;;6.57;;
70416;SDS011;57839;51.332;12.410;2022-08-18T01:46:11;8.40;;;6.32;;
70416;SDS011;57839;51.332;12.410;2022-08-18T01:48:37;9.52;;;6.95;;
70416;SDS011;57839;51.332;12.410;2022-08-18T01:51:04;8.65;;;7.28;;
70416;SDS011;57839;51.332;12.410;2022-08-18T01:53:31;7.72;;;6.07;;
70416;SDS011;57839;51.332;12.410;2022-08-18T01:55:56;7.95;;;6.47;;
70416;SDS011;57839;51.332;12.410;2022-08-18T01:58:22;11.45;;;6.78;;
70416;SDS011;57839;51.332;12.410;2022-08-18T02:00:55;9.63;;;6.35;;
70416;SDS011;57839;51.332;12.410;2022-08-18T02:03:22;6.75;;;5.95;;
70416;SDS011;57839;51.332;12.410;2022-08-18T02:05:51;9.55;;;6.75;;
70416;SDS011;57839;51.332;12.410;2022-08-18T02:08:21;9.40;;;7.13;;
70416;SDS011;57839;51.332;12.410;2022-08-18T02:10:46;8.23;;;6.88;;
70416;SDS011;57839;51.332;12.410;2022-08-18T02:13:12;11.05;;;6.78;;
70416;SDS011;57839;51.332;12.410;2022-08-18T02:15:37;8.05;;;6.50;;
70416;SDS011;57839;51.332;12.410;2022-08-18T02:18:03;8.90;;;6.78;;
70416;SDS011;57839;51.332;12.410;2022-08-18T02:20:29;7.60;;;6.25;;
70416;SDS011;57839;51.332;12.410;2022-08-18T02:22:54;7.63;;;6.47;;
70416;SDS011;57839;51.332;12.410;2022-08-18T02:25:22;7.43;;;6.60;;
70416;SDS011;57839;51.332;12.410;2022-08-18T02:27:48;7.25;;;6.28;;
70416;SDS011;57839;51.332;12.410;2022-08-18T02:30:15;12.05;;;6.70;;
70416;SDS011;57839;51.332;12.410;2022-08-18T02:32:42;8.13;;;6.85;;
70416;SDS011;57839;51.332;12.410;2022-08-18T02:35:08;9.25;;;7.30;;
70416;SDS011;57839;51.332;12.410;2022-08-18T02:37:35;7.85;;;6.22;;
70416;SDS011;57839;51.332;12.410;2022-08-18T02:40:01;8.45;;;6.82;;
70416;SDS011;57839;51.332;12.410;2022-08-18T02:42:26;11.75;;;6.88;;
70416;SDS011;57839;51.332;12.410;2022-08-18T02:44:52;9.98;;;6.35;;
70416;SDS011;57839;51.332;12.410;2022-08-18T02:47:20;6.97;;;6.28;;
70416;SDS011;57839;51.332;12.410;2022-08-18T02:49:46;9.65;;;6.78;;
70416;SDS011;57839;51.332;12.410;2022-08-18T02:52:12;10.40;;;6.97;;
70416;SDS011;57839;51.332;12.410;2022-08-18T02:54:38;8.00;;;6.28;;
70416;SDS011;57839;51.332;12.410;2022-08-18T02:57:10;7.80;;;6.40;;
70416;SDS011;57839;51.332;12.410;2022-08-18T02:59:37;8.40;;;6.80;;
70416;SDS011;57839;51.332;12.410;2022-08-18T03:02:04;8.77;;;6.28;;
70416;SDS011;57839;51.332;12.410;2022-08-18T03:04:33;7.78;;;6.68;;
70416;SDS011;57839;51.332;12.410;2022-08-18T03:07:00;7.35;;;6.30;;
70416;SDS011;57839;51.332;12.410;2022-08-18T03:09:29;8.40;;;6.63;;
70416;SDS011;57839;51.332;12.410;2022-08-18T03:11:55;8.38;;;5.90;;
70416;SDS011;57839;51.332;12.410;2022-08-18T03:14:21;6.63;;;5.90;;
70416;SDS011;57839;51.332;12.410;2022-08-18T03:16:47;8.02;;;5.85;;
70416;SDS011;57839;51.332;12.410;2022-08-18T03:19:14;12.32;;;6.80;;
70416;SDS011;57839;51.332;12.410;2022-08-18T03:21:41;43.65;;;36.83;;
70416;SDS011;57839;51.332;12.410;2022-08-18T03:24:10;13.32;;;10.13;;
70416;SDS011;57839;51.332;12.410;2022-08-18T03:26:38;9.18;;;6.43;;
70416;SDS011;57839;51.332;12.410;2022-08-18T03:29:06;24.80;;;18.38;;
70416;SDS011;57839;51.332;12.410;2022-08-18T03:31:33;9.27;;;7.95;;
70416;SDS011;57839;51.332;12.410;2022-08-18T03:34:02;9.20;;;7.35;;
70416;SDS011;57839;51.332;12.410;2022-08-18T03:36:30;9.25;;;7.60;;
70416;SDS011;57839;51.332;12.410;2022-08-18T03:38:56;10.18;;;6.93;;
70416;SDS011;57839;51.332;12.410;2022-08-18T03:41:23;8.82;;;7.57;;
70416;SDS011;57839;51.332;12.410;2022-08-18T03:43:50;9.15;;;6.70;;
70416;SDS011;57839;51.332;12.410;2022-08-18T03:46:17;9.57;;;6.75;;
70416;SDS011;57839;51.332;12.410;2022-08-18T03:48:44;10.07;;;8.20;;
70416;SDS011;57839;51.332;12.410;2022-08-18T03:51:19;10.60;;;7.82;;
70416;SDS011;57839;51.332;12.410;2022-08-18T03:53:50;9.77;;;6.20;;
70416;SDS011;57839;51.332;12.410;2022-08-18T03:56:21;11.80;;;7.20;;
70416;SDS011;57839;51.332;12.410;2022-08-18T03:58:49;9.77;;;6.47;;
70416;SDS011;57839;51.332;12.410;2022-08-18T04:01:23;9.13;;;6.28;;
70416;SDS011;57839;51.332;12.410;2022-08-18T04:03:53;9.13;;;6.53;;
70416;SDS011;57839;51.332;12.410;2022-08-18T04:06:25;9.43;;;6.20;;
70416;SDS011;57839;51.332;12.410;2022-08-18T04:08:56;9.63;;;6.90;;
70416;SDS011;57839;51.332;12.410;2022-08-18T04:11:23;9.35;;;6.80;;
70416;SDS011;57839;51.332;12.410;2022-08-18T04:13:49;8.32;;;6.18;;
70416;SDS011;57839;51.332;12.410;2022-08-18T04:16:15;9.95;;;6.07;;
70416;SDS011;57839;51.332;12.410;2022-08-18T04:18:40;8.25;;;6.03;;
70416;SDS011;57839;51.332;12.410;2022-08-18T04:21:08;7.35;;;5.45;;
70416;SDS011;57839;51.332;12.410;2022-08-18T04:23:35;12.68;;;6.60;;
70416;SDS011;57839;51.332;12.410;2022-08-18T04:26:02;8.77;;;6.07;;
70416;SDS011;57839;51.332;12.410;2022-08-18T04:28:29;8.13;;;6.10;;
70416;SDS011;57839;51.332;12.410;2022-08-18T04:30:55;9.68;;;6.28;;
70416;SDS011;57839;51.332;12.410;2022-08-18T04:33:24;9.00;;;6.25;;
70416;SDS011;57839;51.332;12.410;2022-08-18T04:35:51;8.77;;;6.28;;
70416;SDS011;57839;51.332;12.410;2022-08-18T04:38:17;7.28;;;6.30;;
70416;SDS011;57839;51.332;12.410;2022-08-18T04:40:42;8.95;;;6.50;;
70416;SDS011;57839;51.332;12.410;2022-08-18T04:43:08;9.25;;;6.28;;
70416;SDS011;57839;51.332;12.410;2022-08-18T04:45:43;11.13;;;6.70;;
70416;SDS011;57839;51.332;12.410;2022-08-18T04:48:09;10.85;;;6.80;;
70416;SDS011;57839;51.332;12.410;2022-08-18T04:50:36;10.25;;;6.80;;
70416;SDS011;57839;51.332;12.410;2022-08-18T04:53:02;9.80;;;5.95;;
70416;SDS011;57839;51.332;12.410;2022-08-18T04:55:50;9.70;;;6.70;;
70416;SDS011;57839;51.332;12.410;2022-08-18T04:58:17;9.52;;;6.10;;
70416;SDS011;57839;51.332;12.410;2022-08-18T05:00:44;11.02;;;6.72;;
70416;SDS011;57839;51.332;12.410;2022-08-18T05:03:10;11.98;;;8.15;;
70416;SDS011;57839;51.332;12.410;2022-08-18T05:05:36;7.88;;;5.80;;
70416;SDS011;57839;51.332;12.410;2022-08-18T05:08:02;11.07;;;6.40;;
70416;SDS011;57839;51.332;12.410;2022-08-18T05:10:28;12.00;;;6.45;;
70416;SDS011;57839;51.332;12.410;2022-08-18T05:12:53;9.98;;;6.78;;
70416;SDS011;57839;51.332;12.410;2022-08-18T05:15:19;9.60;;;6.43;;
70416;SDS011;57839;51.332;12.410;2022-08-18T05:17:45;13.25;;;7.38;;
70416;SDS011;57839;51.332;12.410;2022-08-18T05:20:10;12.07;;;7.47;;
70416;SDS011;57839;51.332;12.410;2022-08-18T05:22:39;9.32;;;6.90;;
70416;SDS011;57839;51.332;12.410;2022-08-18T05:25:08;11.65;;;6.50;;
70416;SDS011;57839;51.332;12.410;2022-08-18T05:27:35;12.98;;;7.38;;
70416;SDS011;57839;51.332;12.410;2022-08-18T05:30:04;16.23;;;7.10;;
70416;SDS011;57839;51.332;12.410;2022-08-18T05:32:32;13.07;;;6.65;;
70416;SDS011;57839;51.332;12.410;2022-08-18T05:35:02;7.63;;;6.05;;
70416;SDS011;57839;51.332;12.410;2022-08-18T05:37:44;9.05;;;6.78;;
70416;SDS011;57839;51.332;12.410;2022-08-18T05:40:21;11.75;;;6.22;;
70416;SDS011;57839;51.332;12.410;2022-08-18T05:42:49;22.75;;;7.53;;
70416;SDS011;57839;51.332;12.410;2022-08-18T05:45:16;22.15;;;7.05;;
70416;SDS011;57839;51.332;12.410;2022-08-18T05:47:43;13.32;;;6.13;;
70416;SDS011;57839;51.332;12.410;2022-08-18T05:50:10;14.15;;;6.68;;
70416;SDS011;57839;51.332;12.410;2022-08-18T05:55:27;23.20;;;8.18;;
70416;SDS011;57839;51.332;12.410;2022-08-18T05:58:24;11.65;;;7.05;;
70416;SDS011;57839;51.332;12.410;2022-08-18T06:00:56;8.02;;;7.20;;
70416;SDS011;57839;51.332;12.410;2022-08-18T06:03:33;11.52;;;7.10;;
70416;SDS011;57839;51.332;12.410;2022-08-18T06:06:02;29.75;;;8.05;;
70416;SDS011;57839;51.332;12.410;2022-08-18T06:08:37;11.43;;;7.05;;
70416;SDS011;57839;51.332;12.410;2022-08-18T06:11:05;10.57;;;6.93;;
70416;SDS011;57839;51.332;12.410;2022-08-18T06:13:34;11.65;;;7.50;;
70416;SDS011;57839;51.332;12.410;2022-08-18T06:19:00;17.75;;;7.57;;
70416;SDS011;57839;51.332;12.410;2022-08-18T06:27:09;10.35;;;8.20;;
70416;SDS011;57839;51.332;12.410;2022-08-18T06:35:17;22.48;;;8.30;;
70416;SDS011;57839;51.332;12.410;2022-08-18T06:40:59;10.45;;;7.82;;
70416;SDS011;57839;51.332;12.410;2022-08-18T06:43:44;11.45;;;7.47;;
70416;SDS011;57839;51.332;12.410;2022-08-18T06:46:17;12.90;;;8.75;;
70416;SDS011;57839;51.332;12.410;2022-08-18T06:48:46;11.23;;;8.00;;
70416;SDS011;57839;51.332;12.410;2022-08-18T06:51:18;12.10;;;9.40;;
70416;SDS011;57839;51.332;12.410;2022-08-18T06:53:50;11.40;;;8.35;;
70416;SDS011;57839;51.332;12.410;2022-08-18T06:56:33;18.00;;;8.52;;
70416;SDS011;57839;51.332;12.410;2022-08-18T07:01:40;11.95;;;9.32;;
70416;SDS011;57839;51.332;12.410;2022-08-18T07:04:06;13.90;;;9.18;;
70416;SDS011;57839;51.332;12.410;2022-08-18T07:06:32;23.15;;;9.88;;
70416;SDS011;57839;51.332;12.410;2022-08-18T07:09:16;22.05;;;10.25;;
70416;SDS011;57839;51.332;12.410;2022-08-18T07:12:05;18.75;;;9.68;;
70416;SDS011;57839;51.332;12.410;2022-08-18T07:14:40;9.35;;;8.32;;
70416;SDS011;57839;51.332;12.410;2022-08-18T07:17:09;14.02;;;9.05;;
70416;SDS011;57839;51.332;12.410;2022-08-18T07:19:38;13.18;;;9.30;;
70416;SDS011;57839;51.332;12.410;2022-08-18T07:24:37;10.13;;;8.55;;
70416;SDS011;57839;51.332;12.410;2022-08-18T07:27:10;14.55;;;10.30;;
70416;SDS011;57839;51.332;12.410;2022-08-18T07:29:40;13.65;;;10.35;;
70416;SDS011;57839;51.332;12.410;2022-08-18T07:32:23;12.77;;;10.98;;
70416;SDS011;57839;51.332;12.410;2022-08-18T07:34:58;13.98;;;11.20;;
70416;SDS011;57839;51.332;12.410;2022-08-18T07:37:30;22.88;;;14.32;;
70416;SDS011;57839;51.332;12.410;2022-08-18T07:40:42;12.15;;;10.68;;
70416;SDS011;57839;51.332;12.410;2022-08-18T07:43:11;15.60;;;11.13;;
70416;SDS011;57839;51.332;12.410;2022-08-18T07:45:43;14.23;;;11.45;;
70416;SDS011;57839;51.332;12.410;2022-08-18T07:48:11;16.05;;;12.95;;
70416;SDS011;57839;51.332;12.410;2022-08-18T07:53:26;14.95;;;11.30;;
70416;SDS011;57839;51.332;12.410;2022-08-18T07:56:01;14.57;;;12.55;;
70416;SDS011;57839;51.332;12.410;2022-08-18T07:59:39;17.45;;;13.05;;
70416;SDS011;57839;51.332;12.410;2022-08-18T08:01:56;17.98;;;13.00;;
70416;SDS011;57839;51.332;12.410;2022-08-18T08:07:23;18.08;;;14.40;;
70416;SDS011;57839;51.332;12.410;2022-08-18T08:12:36;19.90;;;15.05;;
70416;SDS011;57839;51.332;12.410;2022-08-18T08:15:22;19.17;;;14.02;;
70416;SDS011;57839;51.332;12.410;2022-08-18T08:20:51;18.13;;;13.02;;
70416;SDS011;57839;51.332;12.410;2022-08-18T08:26:19;18.23;;;13.32;;
70416;SDS011;57839;51.332;12.410;2022-08-18T08:28:52;19.17;;;13.57;;
70416;SDS011;57839;51.332;12.410;2022-08-18T08:31:31;26.70;;;14.60;;
70416;SDS011;57839;51.332;12.410;2022-08-18T08:36:52;20.33;;;12.88;;
70416;SDS011;57839;51.332;12.410;2022-08-18T08:45:05;19.67;;;13.55;;
70416;SDS011;57839;51.332;12.410;2022-08-18T08:50:03;20.35;;;14.18;;
70416;SDS011;57839;51.332;12.410;2022-08-18T08:55:40;19.23;;;13.05;;
70416;SDS011;57839;51.332;12.410;2022-08-18T09:00:48;19.08;;;14.82;;
70416;SDS011;57839;51.332;12.410;2022-08-18T09:06:13;21.65;;;14.90;;
70416;SDS011;57839;51.332;12.410;2022-08-18T09:24:30;16.95;;;14.57;;
70416;SDS011;57839;51.332;12.410;2022-08-18T09:29:59;19.58;;;14.75;;
70416;SDS011;57839;51.332;12.410;2022-08-18T09:38:07;15.07;;;12.80;;
70416;SDS011;57839;51.332;12.410;2022-08-18T09:44:13;24.75;;;14.30;;
70416;SDS011;57839;51.332;12.410;2022-08-18T09:51:52;16.02;;;13.57;;
70416;SDS011;57839;51.332;12.410;2022-08-18T09:54:20;24.35;;;14.70;;
70416;SDS011;57839;51.332;12.410;2022-08-18T10:01:58;16.52;;;14.50;;
70416;SDS011;57839;51.332;12.410;2022-08-18T10:04:25;20.10;;;14.05;;
70416;SDS011;57839;51.332;12.410;2022-08-18T10:07:12;17.92;;;14.18;;
70416;SDS011;57839;51.332;12.410;2022-08-18T10:09:58;23.25;;;12.65;;
70416;SDS011;57839;51.332;12.410;2022-08-18T10:23:52;16.77;;;13.90;;
70416;SDS011;57839;51.332;12.410;2022-08-18T10:29:07;15.45;;;12.82;;
70416;SDS011;57839;51.332;12.410;2022-08-18T10:39:49;17.88;;;13.00;;
70416;SDS011;57839;51.332;12.410;2022-08-18T10:45:33;22.30;;;13.48;;
70416;SDS011;57839;51.332;12.410;2022-08-18T10:50:35;18.45;;;14.43;;
70416;SDS011;57839;51.332;12.410;2022-08-18T11:04:01;20.80;;;18.02;;
70416;SDS011;57839;51.332;12.410;2022-08-18T11:06:40;17.05;;;13.48;;
70416;SDS011;57839;51.332;12.410;2022-08-18T11:09:08;14.98;;;12.57;;
70416;SDS011;57839;51.332;12.410;2022-08-18T11:11:37;16.38;;;14.38;;
70416;SDS011;57839;51.332;12.410;2022-08-18T11:16:43;14.73;;;12.85;;
70416;SDS011;57839;51.332;12.410;2022-08-18T11:19:17;18.88;;;14.52;;
70416;SDS011;57839;51.332;12.410;2022-08-18T11:21:47;16.35;;;14.00;;
70416;SDS011;57839;51.332;12.410;2022-08-18T11:26:51;21.05;;;13.52;;
70416;SDS011;57839;51.332;12.410;2022-08-18T11:31:49;18.08;;;12.82;;
70416;SDS011;57839;51.332;12.410;2022-08-18T11:34:22;13.32;;;11.93;;
70416;SDS011;57839;51.332;12.410;2022-08-18T11:36:59;13.18;;;11.30;;
70416;SDS011;57839;51.332;12.410;2022-08-18T11:39:27;14.48;;;13.02;;
70416;SDS011;57839;51.332;12.410;2022-08-18T11:41:53;16.73;;;13.23;;
70416;SDS011;57839;51.332;12.410;2022-08-18T11:44:20;16.38;;;13.10;;
70416;SDS011;57839;51.332;12.410;2022-08-18T11:46:49;22.10;;;14.98;;
70416;SDS011;57839;51.332;12.410;2022-08-18T11:49:25;14.93;;;11.77;;
70416;SDS011;57839;51.332;12.410;2022-08-18T11:51:58;14.07;;;10.38;;
70416;SDS011;57839;51.332;12.410;2022-08-18T11:54:32;13.30;;;10.35;;
70416;SDS011;57839;51.332;12.410;2022-08-18T12:00:34;12.48;;;10.50;;
70416;SDS011;57839;51.332;12.410;2022-08-18T12:03:10;13.25;;;9.82;;
70416;SDS011;57839;51.332;12.410;2022-08-18T12:06:09;11.65;;;10.02;;
70416;SDS011;57839;51.332;12.410;2022-08-18T12:08:37;11.10;;;9.85;;
70416;SDS011;57839;51.332;12.410;2022-08-18T12:11:15;13.32;;;10.60;;
70416;SDS011;57839;51.332;12.410;2022-08-18T12:13:44;15.65;;;9.80;;
70416;SDS011;57839;51.332;12.410;2022-08-18T12:16:31;15.63;;;10.05;;
70416;SDS011;57839;51.332;12.410;2022-08-18T12:19:08;13.57;;;10.07;;
70416;SDS011;57839;51.332;12.410;2022-08-18T12:21:36;12.07;;;10.88;;
70416;SDS011;57839;51.332;12.410;2022-08-18T12:24:03;12.43;;;10.07;;
70416;SDS011;57839;51.332;12.410;2022-08-18T12:26:29;13.43;;;10.43;;
70416;SDS011;57839;51.332;12.410;2022-08-18T12:28:55;13.38;;;9.48;;
70416;SDS011;57839;51.332;12.410;2022-08-18T12:31:20;11.80;;;9.82;;
70416;SDS011;57839;51.332;12.410;2022-08-18T12:33:46;15.00;;;11.02;;
70416;SDS011;57839;51.332;12.410;2022-08-18T12:36:12;12.13;;;10.25;;
70416;SDS011;57839;51.332;12.410;2022-08-18T12:38:37;12.38;;;10.05;;
70416;SDS011;57839;51.332;12.410;2022-08-18T12:41:05;15.52;;;9.93;;
70416;SDS011;57839;51.332;12.410;2022-08-18T12:43:35;17.60;;;11.90;;
70416;SDS011;57839;51.332;12.410;2022-08-18T12:46:02;13.75;;;12.43;;
70416;SDS011;57839;51.332;12.410;2022-08-18T12:48:27;15.60;;;11.18;;
70416;SDS011;57839;51.332;12.410;2022-08-18T12:50:54;15.77;;;11.82;;
70416;SDS011;57839;51.332;12.410;2022-08-18T12:53:19;14.95;;;11.77;;
70416;SDS011;57839;51.332;12.410;2022-08-18T12:55:45;15.15;;;11.60;;
70416;SDS011;57839;51.332;12.410;2022-08-18T12:58:11;17.63;;;12.15;;
70416;SDS011;57839;51.332;12.410;2022-08-18T13:00:37;19.88;;;13.05;;
70416;SDS011;57839;51.332;12.410;2022-08-18T13:03:04;20.42;;;13.27;;
70416;SDS011;57839;51.332;12.410;2022-08-18T13:05:31;15.95;;;12.50;;
70416;SDS011;57839;51.332;12.410;2022-08-18T13:07:57;14.57;;;12.32;;
70416;SDS011;57839;51.332;12.410;2022-08-18T13:10:25;19.25;;;13.80;;
70416;SDS011;57839;51.332;12.410;2022-08-18T13:12:51;19.58;;;13.10;;
70416;SDS011;57839;51.332;12.410;2022-08-18T13:15:16;21.50;;;13.48;;
70416;SDS011;57839;51.332;12.410;2022-08-18T13:17:42;17.60;;;13.40;;
70416;SDS011;57839;51.332;12.410;2022-08-18T13:20:10;18.88;;;13.40;;
70416;SDS011;57839;51.332;12.410;2022-08-18T13:22:37;19.73;;;13.57;;
70416;SDS011;57839;51.332;12.410;2022-08-18T13:25:06;16.42;;;14.00;;
70416;SDS011;57839;51.332;12.410;2022-08-18T13:27:37;15.10;;;13.55;;
70416;SDS011;57839;51.332;12.410;2022-08-18T13:30:03;16.67;;;14.73;;
70416;SDS011;57839;51.332;12.410;2022-08-18T13:32:34;21.65;;;15.45;;
70416;SDS011;57839;51.332;12.410;2022-08-18T13:35:00;16.05;;;14.23;;
70416;SDS011;57839;51.332;12.410;2022-08-18T13:37:25;19.05;;;14.85;;
70416;SDS011;57839;51.332;12.410;2022-08-18T13:39:52;18.92;;;14.27;;
70416;SDS011;57839;51.332;12.410;2022-08-18T13:42:18;20.48;;;14.70;;
70416;SDS011;57839;51.332;12.410;2022-08-18T13:44:43;21.35;;;14.88;;
70416;SDS011;57839;51.332;12.410;2022-08-18T13:47:09;17.52;;;15.20;;
70416;SDS011;57839;51.332;12.410;2022-08-18T13:49:35;16.20;;;14.50;;
70416;SDS011;57839;51.332;12.410;2022-08-18T13:52:00;21.52;;;15.10;;
70416;SDS011;57839;51.332;12.410;2022-08-18T13:54:26;18.35;;;15.23;;
70416;SDS011;57839;51.332;12.410;2022-08-18T13:56:53;21.08;;;14.95;;
70416;SDS011;57839;51.332;12.410;2022-08-18T13:59:20;17.42;;;14.88;;
70416;SDS011;57839;51.332;12.410;2022-08-18T14:01:47;20.08;;;15.15;;
70416;SDS011;57839;51.332;12.410;2022-08-18T14:04:15;17.08;;;14.57;;
70416;SDS011;57839;51.332;12.410;2022-08-18T14:06:42;21.77;;;13.95;;
70416;SDS011;57839;51.332;12.410;2022-08-18T14:09:07;15.60;;;12.82;;
70416;SDS011;57839;51.332;12.410;2022-08-18T14:11:33;16.77;;;13.48;;
70416;SDS011;57839;51.332;12.410;2022-08-18T14:14:01;17.42;;;14.32;;
70416;SDS011;57839;51.332;12.410;2022-08-18T14:16:29;21.02;;;14.00;;
70416;SDS011;57839;51.332;12.410;2022-08-18T14:18:56;19.98;;;14.05;;
70416;SDS011;57839;51.332;12.410;2022-08-18T14:21:41;18.75;;;14.07;;
70416;SDS011;57839;51.332;12.410;2022-08-18T14:24:30;19.77;;;14.32;;
70416;SDS011;57839;51.332;12.410;2022-08-18T14:29:44;18.15;;;15.15;;
70416;SDS011;57839;51.332;12.410;2022-08-18T14:32:13;19.13;;;15.27;;
70416;SDS011;57839;51.332;12.410;2022-08-18T14:34:39;18.92;;;14.75;;
70416;SDS011;57839;51.332;12.410;2022-08-18T14:37:05;18.67;;;15.05;;
70416;SDS011;57839;51.332;12.410;2022-08-18T14:39:30;27.50;;;16.20;;
70416;SDS011;57839;51.332;12.410;2022-08-18T14:41:56;20.58;;;14.98;;
70416;SDS011;57839;51.332;12.410;2022-08-18T14:44:22;18.35;;;15.90;;
70416;SDS011;57839;51.332;12.410;2022-08-18T14:46:48;19.77;;;15.93;;
70416;SDS011;57839;51.332;12.410;2022-08-18T14:49:13;20.30;;;16.90;;
70416;SDS011;57839;51.332;12.410;2022-08-18T14:51:39;20.23;;;17.58;;
70416;SDS011;57839;51.332;12.410;2022-08-18T14:54:11;56.30;;;45.15;;
70416;SDS011;57839;51.332;12.410;2022-08-18T14:56:36;23.45;;;19.15;;
70416;SDS011;57839;51.332;12.410;2022-08-18T14:59:03;30.40;;;18.60;;
70416;SDS011;57839;51.332;12.410;2022-08-18T15:01:31;19.52;;;16.77;;
70416;SDS011;57839;51.332;12.410;2022-08-18T15:04:00;21.92;;;18.88;;
70416;SDS011;57839;51.332;12.410;2022-08-18T15:06:26;21.38;;;18.15;;
70416;SDS011;57839;51.332;12.410;2022-08-18T15:08:53;24.60;;;18.00;;
70416;SDS011;57839;51.332;12.410;2022-08-18T15:11:19;23.17;;;18.02;;
70416;SDS011;57839;51.332;12.410;2022-08-18T15:13:45;22.75;;;17.90;;
70416;SDS011;57839;51.332;12.410;2022-08-18T15:16:11;21.45;;;18.50;;
70416;SDS011;57839;51.332;12.410;2022-08-18T15:18:38;26.98;;;17.60;;
70416;SDS011;57839;51.332;12.410;2022-08-18T15:21:05;18.75;;;16.70;;
70416;SDS011;57839;51.332;12.410;2022-08-18T15:23:49;24.10;;;20.65;;
70416;SDS011;57839;51.332;12.410;2022-08-18T15:26:33;24.02;;;18.27;;
70416;SDS011;57839;51.332;12.410;2022-08-18T15:28:59;19.58;;;17.50;;
70416;SDS011;57839;51.332;12.410;2022-08-18T15:31:25;22.95;;;18.23;;
70416;SDS011;57839;51.332;12.410;2022-08-18T15:33:51;19.20;;;17.15;;
70416;SDS011;57839;51.332;12.410;2022-08-18T15:36:18;19.65;;;17.23;;
70416;SDS011;57839;51.332;12.410;2022-08-18T15:38:46;19.50;;;17.48;;
70416;SDS011;57839;51.332;12.410;2022-08-18T15:41:29;19.80;;;17.48;;
70416;SDS011;57839;51.332;12.410;2022-08-18T15:43:58;22.38;;;17.42;;
70416;SDS011;57839;51.332;12.410;2022-08-18T15:46:25;20.85;;;17.45;;
70416;SDS011;57839;51.332;12.410;2022-08-18T15:48:51;19.85;;;17.75;;
70416;SDS011;57839;51.332;12.410;2022-08-18T15:51:17;28.23;;;20.90;;
70416;SDS011;57839;51.332;12.410;2022-08-18T15:53:42;22.42;;;18.15;;
70416;SDS011;57839;51.332;12.410;2022-08-18T15:56:15;21.65;;;18.25;;
70416;SDS011;57839;51.332;12.410;2022-08-18T15:58:42;19.52;;;16.55;;
70416;SDS011;57839;51.332;12.410;2022-08-18T16:01:11;18.30;;;16.52;;
70416;SDS011;57839;51.332;12.410;2022-08-18T16:03:37;19.60;;;15.63;;
70416;SDS011;57839;51.332;12.410;2022-08-18T16:06:03;18.40;;;14.57;;
70416;SDS011;57839;51.332;12.410;2022-08-18T16:08:28;17.38;;;15.32;;
70416;SDS011;57839;51.332;12.410;2022-08-18T16:10:54;17.88;;;16.17;;
70416;SDS011;57839;51.332;12.410;2022-08-18T16:13:20;18.10;;;16.17;;
70416;SDS011;57839;51.332;12.410;2022-08-18T16:15:48;17.83;;;15.98;;
70416;SDS011;57839;51.332;12.410;2022-08-18T16:18:15;18.60;;;15.73;;
70416;SDS011;57839;51.332;12.410;2022-08-18T16:20:42;18.42;;;15.30;;
70416;SDS011;57839;51.332;12.410;2022-08-18T16:23:09;19.33;;;16.45;;
70416;SDS011;57839;51.332;12.410;2022-08-18T16:25:36;18.30;;;15.55;;
70416;SDS011;57839;51.332;12.410;2022-08-18T16:28:02;17.02;;;15.20;;
70416;SDS011;57839;51.332;12.410;2022-08-18T16:30:29;19.73;;;16.15;;
70416;SDS011;57839;51.332;12.410;2022-08-18T16:32:56;18.02;;;14.68;;
70416;SDS011;57839;51.332;12.410;2022-08-18T16:35:27;20.50;;;15.10;;
70416;SDS011;57839;51.332;12.410;2022-08-18T16:37:53;16.23;;;14.52;;
70416;SDS011;57839;51.332;12.410;2022-08-18T16:40:18;16.80;;;15.00;;
70416;SDS011;57839;51.332;12.410;2022-08-18T16:42:44;18.55;;;15.85;;
70416;SDS011;57839;51.332;12.410;2022-08-18T16:45:11;16.75;;;14.85;;
70416;SDS011;57839;51.332;12.410;2022-08-18T16:47:36;17.42;;;15.30;;
70416;SDS011;57839;51.332;12.410;2022-08-18T16:50:07;16.40;;;14.68;;
70416;SDS011;57839;51.332;12.410;2022-08-18T16:52:34;16.45;;;14.75;;
70416;SDS011;57839;51.332;12.410;2022-08-18T16:54:59;17.80;;;15.20;;
70416;SDS011;57839;51.332;12.410;2022-08-18T16:57:25;19.85;;;16.25;;
70416;SDS011;57839;51.332;12.410;2022-08-18T17:00:09;21.48;;;17.10;;
70416;SDS011;57839;51.332;12.410;2022-08-18T17:02:53;30.55;;;26.10;;